HALF-HOURLY OBSERVATIONS INDEX

043

Maranoa

ROMA AIRPORT

Site: 043091
Alt: 307.4m
2km NNW of ROMA


  Time     Wind        Temp  DP   Baro     Rain since   Rain past  Vis(m), Cloud(base in m), Weather
  local        km/h                         9am  last   hr   10m    
Mon 10:00  NNE 11/ 19  30.2 18.9  1015.7    0.0   0.0   0.0   0.0   10000 
Mon 10:30  WNW  9/ 13  30.9 18.6  1015.3    0.0   0.0   0.0   0.0   10000 
Mon 11:00    N 11/ 20  32.3 19.2  1015.0    0.0   0.0   0.0   0.0   10000 
Mon 11:30    E  9/ 20  33.9 18.0  1014.8    0.0   0.0   0.0   0.0   10000 
Mon 12:00  ESE 13/ 20  34.9 16.7  1014.4    0.0   0.0   0.0   0.0   10000 
Mon 12:30  ENE 13/ 20  35.1 16.4  1013.9    0.0   0.0   0.0   0.0   10000 
Mon 13:00   NE 19/ 26  35.4 16.7  1013.3    0.0   0.0   0.0   0.0   10000|SC2100 
Mon 13:30    S 13/ 20  35.0 15.8  1013.0    0.0   0.0   0.0   0.0   10000|SC2820 
Mon 14:00  ESE 15/ 24  34.6 14.5  1012.6    0.0   0.0   0.0   0.0   10000 
Mon 14:30   SE 17/ 24  35.9 14.5  1012.1    0.0   0.0   0.0   0.0   10000 
Mon 15:00   SE 15/ 22  34.6 14.5  1011.7    0.0   0.0   0.0   0.0   10000|SC2550 
Mon 15:30  ESE 22/ 26  35.7 15.4  1011.5    0.0   0.0   0.0   0.0   10000|SC2790 

ST GEORGE AIRPORT

Site: 043109
Alt: 198.5m
4km SSE of ST GEORGE


  Time     Wind        Temp  DP   Baro     Rain since   Rain past  Vis(m), Cloud(base in m), Weather
  local        km/h                         9am  last   hr   10m    
Mon 10:00    N 13/ 22  31.2 18.5  1014.9    0.0   0.0   0.0   0.0   10000 
Mon 10:30   NW 17/ 24  32.2 18.0  1014.6    0.0   0.0   0.0   0.0   10000 
Mon 11:00  WNW 15/ 24  33.0 17.2  1014.3    0.0   0.0   0.0   0.0   10000 
Mon 11:30    N  9/ 17  33.3 16.2  1014.0    0.0   0.0   0.0   0.0   10000 
Mon 12:00    N 13/ 20  33.9 16.3  1013.5    0.0   0.0   0.0   0.0   10000 
Mon 12:30  NNE  9/ 17  34.3 15.2  1013.1    0.0   0.0   0.0   0.0   10000|SC1770 
Mon 13:00    N 11/ 17  34.6 15.0  1012.6    0.0   0.0   0.0   0.0   10000|SC1830 BR2250 
Mon 13:30   SW  6/ 11  35.6 12.5  1012.1    0.0   0.0   0.0   0.0   10000 
Mon 14:00  NNW 11/ 17  35.8 12.7  1011.6    0.0   0.0   0.0   0.0   10000 
Mon 14:30    W  7/ 15  36.3 11.9  1011.1    0.0   0.0   0.0   0.0   10000 
Mon 15:00   SW 11/ 17  37.2 11.9  1010.6    0.0   0.0   0.0   0.0   10000 
Mon 15:30   SW  9/ 19  36.9 12.4  1010.2    0.0   0.0   0.0   0.0   10000